sensor_id;sensor_type;location;lat;lon;timestamp;temperature;humidity
71088;SHT31;58747;50.674;4.616;2022-10-16T00:01:31;12.94;91.89
71088;SHT31;58747;50.674;4.616;2022-10-16T00:03:58;12.92;91.69
71088;SHT31;58747;50.674;4.616;2022-10-16T00:06:24;13.01;90.80
71088;SHT31;58747;50.674;4.616;2022-10-16T00:08:50;13.05;90.91
71088;SHT31;58747;50.674;4.616;2022-10-16T00:11:19;12.98;91.17
71088;SHT31;58747;50.674;4.616;2022-10-16T00:13:46;12.96;91.51
71088;SHT31;58747;50.674;4.616;2022-10-16T00:16:12;12.92;91.56
71088;SHT31;58747;50.674;4.616;2022-10-16T00:18:38;12.94;91.70
71088;SHT31;58747;50.674;4.616;2022-10-16T00:21:11;12.95;91.45
71088;SHT31;58747;50.674;4.616;2022-10-16T00:23:38;12.91;92.03
71088;SHT31;58747;50.674;4.616;2022-10-16T00:26:06;12.89;91.58
71088;SHT31;58747;50.674;4.616;2022-10-16T00:28:32;12.85;92.36
71088;SHT31;58747;50.674;4.616;2022-10-16T00:30:58;12.83;92.58
71088;SHT31;58747;50.674;4.616;2022-10-16T00:33:24;12.80;92.25
71088;SHT31;58747;50.674;4.616;2022-10-16T00:35:50;12.83;92.56
71088;SHT31;58747;50.674;4.616;2022-10-16T00:38:16;12.84;92.57
71088;SHT31;58747;50.674;4.616;2022-10-16T00:40:41;12.83;92.85
71088;SHT31;58747;50.674;4.616;2022-10-16T00:45:56;12.77;92.38
71088;SHT31;58747;50.674;4.616;2022-10-16T00:48:21;12.73;92.64
71088;SHT31;58747;50.674;4.616;2022-10-16T00:50:47;12.73;92.67
71088;SHT31;58747;50.674;4.616;2022-10-16T00:53:13;12.68;93.18
71088;SHT31;58747;50.674;4.616;2022-10-16T00:55:39;12.71;93.13
71088;SHT31;58747;50.674;4.616;2022-10-16T00:58:05;12.67;93.45
71088;SHT31;58747;50.674;4.616;2022-10-16T01:00:30;12.63;93.54
71088;SHT31;58747;50.674;4.616;2022-10-16T01:02:59;12.65;93.19
71088;SHT31;58747;50.674;4.616;2022-10-16T01:05:59;12.68;93.10
71088;SHT31;58747;50.674;4.616;2022-10-16T01:08:36;12.63;93.43
71088;SHT31;58747;50.674;4.616;2022-10-16T01:13:46;12.58;93.56
71088;SHT31;58747;50.674;4.616;2022-10-16T01:16:20;12.57;93.89
71088;SHT31;58747;50.674;4.616;2022-10-16T01:18:54;12.55;93.70
71088;SHT31;58747;50.674;4.616;2022-10-16T01:21:24;12.53;93.86
71088;SHT31;58747;50.674;4.616;2022-10-16T01:24:19;12.55;93.89
71088;SHT31;58747;50.674;4.616;2022-10-16T01:27:14;12.54;94.28
71088;SHT31;58747;50.674;4.616;2022-10-16T01:29:52;12.61;94.16
71088;SHT31;58747;50.674;4.616;2022-10-16T01:32:33;12.63;94.05
71088;SHT31;58747;50.674;4.616;2022-10-16T01:35:04;12.58;93.88
71088;SHT31;58747;50.674;4.616;2022-10-16T01:40:12;12.61;93.71
71088;SHT31;58747;50.674;4.616;2022-10-16T01:42:46;12.60;94.04
71088;SHT31;58747;50.674;4.616;2022-10-16T01:45:14;12.60;93.95
71088;SHT31;58747;50.674;4.616;2022-10-16T01:47:43;12.68;93.26
71088;SHT31;58747;50.674;4.616;2022-10-16T01:50:09;12.67;93.77
71088;SHT31;58747;50.674;4.616;2022-10-16T01:52:38;12.71;93.47
71088;SHT31;58747;50.674;4.616;2022-10-16T01:55:06;12.67;93.43
71088;SHT31;58747;50.674;4.616;2022-10-16T01:57:34;12.69;93.35
71088;SHT31;58747;50.674;4.616;2022-10-16T02:00:05;12.74;93.33
71088;SHT31;58747;50.674;4.616;2022-10-16T02:02:32;12.71;93.67
71088;SHT31;58747;50.674;4.616;2022-10-16T02:05:03;12.74;93.57
71088;SHT31;58747;50.674;4.616;2022-10-16T02:07:29;12.71;93.38
71088;SHT31;58747;50.674;4.616;2022-10-16T02:09:54;12.68;93.68
71088;SHT31;58747;50.674;4.616;2022-10-16T02:12:29;12.63;93.86
71088;SHT31;58747;50.674;4.616;2022-10-16T02:14:56;12.63;94.03
71088;SHT31;58747;50.674;4.616;2022-10-16T02:17:22;12.65;94.32
71088;SHT31;58747;50.674;4.616;2022-10-16T02:19:49;12.65;94.38
71088;SHT31;58747;50.674;4.616;2022-10-16T02:22:28;12.89;94.67
71088;SHT31;58747;50.674;4.616;2022-10-16T02:32:58;12.74;93.68
71088;SHT31;58747;50.674;4.616;2022-10-16T02:35:25;12.73;93.82
71088;SHT31;58747;50.674;4.616;2022-10-16T02:37:52;12.71;94.05
71088;SHT31;58747;50.674;4.616;2022-10-16T02:40:19;12.71;93.80
71088;SHT31;58747;50.674;4.616;2022-10-16T02:42:44;12.64;93.99
71088;SHT31;58747;50.674;4.616;2022-10-16T02:45:10;12.58;94.25
71088;SHT31;58747;50.674;4.616;2022-10-16T02:47:36;12.54;94.53
71088;SHT31;58747;50.674;4.616;2022-10-16T02:50:03;12.53;94.63
71088;SHT31;58747;50.674;4.616;2022-10-16T02:52:28;12.48;94.72
71088;SHT31;58747;50.674;4.616;2022-10-16T02:54:54;12.53;94.67
71088;SHT31;58747;50.674;4.616;2022-10-16T02:57:19;12.50;94.88
71088;SHT31;58747;50.674;4.616;2022-10-16T02:59:45;12.43;94.96
71088;SHT31;58747;50.674;4.616;2022-10-16T03:02:10;12.41;95.10
71088;SHT31;58747;50.674;4.616;2022-10-16T03:04:36;12.41;95.30
71088;SHT31;58747;50.674;4.616;2022-10-16T03:07:02;12.41;95.34
71088;SHT31;58747;50.674;4.616;2022-10-16T03:09:28;12.46;95.35
71088;SHT31;58747;50.674;4.616;2022-10-16T03:11:53;12.44;95.27
71088;SHT31;58747;50.674;4.616;2022-10-16T03:14:18;12.48;95.10
71088;SHT31;58747;50.674;4.616;2022-10-16T03:16:43;12.41;95.42
71088;SHT31;58747;50.674;4.616;2022-10-16T03:19:09;12.43;95.37
71088;SHT31;58747;50.674;4.616;2022-10-16T03:21:34;12.43;95.81
71088;SHT31;58747;50.674;4.616;2022-10-16T03:24:00;12.44;95.56
71088;SHT31;58747;50.674;4.616;2022-10-16T03:26:25;12.44;95.65
71088;SHT31;58747;50.674;4.616;2022-10-16T03:28:50;12.48;95.46
71088;SHT31;58747;50.674;4.616;2022-10-16T03:31:16;12.40;95.73
71088;SHT31;58747;50.674;4.616;2022-10-16T03:33:41;12.38;95.83
71088;SHT31;58747;50.674;4.616;2022-10-16T03:36:06;12.41;95.76
71088;SHT31;58747;50.674;4.616;2022-10-16T03:38:32;12.41;95.68
71088;SHT31;58747;50.674;4.616;2022-10-16T03:40:57;12.38;95.72
71088;SHT31;58747;50.674;4.616;2022-10-16T03:43:22;12.41;95.85
71088;SHT31;58747;50.674;4.616;2022-10-16T03:45:50;12.38;95.76
71088;SHT31;58747;50.674;4.616;2022-10-16T03:48:16;12.36;95.85
71088;SHT31;58747;50.674;4.616;2022-10-16T03:50:41;12.33;96.04
71088;SHT31;58747;50.674;4.616;2022-10-16T03:53:07;12.30;96.11
71088;SHT31;58747;50.674;4.616;2022-10-16T03:55:32;12.34;96.18
71088;SHT31;58747;50.674;4.616;2022-10-16T03:57:57;12.33;96.15
71088;SHT31;58747;50.674;4.616;2022-10-16T04:00:23;12.38;96.26
71088;SHT31;58747;50.674;4.616;2022-10-16T04:02:48;12.38;96.20
71088;SHT31;58747;50.674;4.616;2022-10-16T04:05:13;12.41;96.09
71088;SHT31;58747;50.674;4.616;2022-10-16T04:07:39;12.41;96.13
71088;SHT31;58747;50.674;4.616;2022-10-16T04:10:04;12.46;95.91
71088;SHT31;58747;50.674;4.616;2022-10-16T04:12:30;12.43;95.92
71088;SHT31;58747;50.674;4.616;2022-10-16T04:14:55;12.46;95.76
71088;SHT31;58747;50.674;4.616;2022-10-16T04:17:21;12.48;95.85
71088;SHT31;58747;50.674;4.616;2022-10-16T04:19:46;12.50;95.73
71088;SHT31;58747;50.674;4.616;2022-10-16T04:22:11;12.46;95.62
71088;SHT31;58747;50.674;4.616;2022-10-16T04:24:37;12.53;95.76
71088;SHT31;58747;50.674;4.616;2022-10-16T04:27:02;12.50;95.58
71088;SHT31;58747;50.674;4.616;2022-10-16T04:29:28;12.50;95.63
71088;SHT31;58747;50.674;4.616;2022-10-16T04:31:53;12.44;95.84
71088;SHT31;58747;50.674;4.616;2022-10-16T04:34:18;12.47;95.81
71088;SHT31;58747;50.674;4.616;2022-10-16T04:36:47;12.50;95.81
71088;SHT31;58747;50.674;4.616;2022-10-16T04:39:12;12.46;95.78
71088;SHT31;58747;50.674;4.616;2022-10-16T04:41:37;12.40;95.97
71088;SHT31;58747;50.674;4.616;2022-10-16T04:44:03;12.44;96.10
71088;SHT31;58747;50.674;4.616;2022-10-16T04:46:28;12.47;96.13
71088;SHT31;58747;50.674;4.616;2022-10-16T04:48:53;12.46;96.01
71088;SHT31;58747;50.674;4.616;2022-10-16T04:51:19;12.46;95.92
71088;SHT31;58747;50.674;4.616;2022-10-16T04:53:44;12.46;95.92
71088;SHT31;58747;50.674;4.616;2022-10-16T04:56:10;12.41;96.15
71088;SHT31;58747;50.674;4.616;2022-10-16T04:58:35;12.41;96.10
71088;SHT31;58747;50.674;4.616;2022-10-16T05:01:00;12.43;96.12
71088;SHT31;58747;50.674;4.616;2022-10-16T05:03:26;12.41;96.33
71088;SHT31;58747;50.674;4.616;2022-10-16T05:05:51;12.47;96.31
71088;SHT31;58747;50.674;4.616;2022-10-16T05:08:16;12.51;95.97
71088;SHT31;58747;50.674;4.616;2022-10-16T05:10:43;12.48;95.86
71088;SHT31;58747;50.674;4.616;2022-10-16T05:13:09;12.46;95.92
71088;SHT31;58747;50.674;4.616;2022-10-16T05:15:34;12.44;96.06
71088;SHT31;58747;50.674;4.616;2022-10-16T05:18:00;12.47;96.01
71088;SHT31;58747;50.674;4.616;2022-10-16T05:20:25;12.48;95.84
71088;SHT31;58747;50.674;4.616;2022-10-16T05:22:51;12.46;95.98
71088;SHT31;58747;50.674;4.616;2022-10-16T05:25:16;12.43;96.05
71088;SHT31;58747;50.674;4.616;2022-10-16T05:27:42;12.41;96.15
71088;SHT31;58747;50.674;4.616;2022-10-16T05:30:07;12.43;96.15
71088;SHT31;58747;50.674;4.616;2022-10-16T05:32:33;12.43;96.21
71088;SHT31;58747;50.674;4.616;2022-10-16T05:34:58;12.43;96.16
71088;SHT31;58747;50.674;4.616;2022-10-16T05:37:25;12.41;96.10
71088;SHT31;58747;50.674;4.616;2022-10-16T05:39:50;12.37;96.27
71088;SHT31;58747;50.674;4.616;2022-10-16T05:42:16;12.34;96.30
71088;SHT31;58747;50.674;4.616;2022-10-16T05:44:41;12.30;96.34
71088;SHT31;58747;50.674;4.616;2022-10-16T05:47:06;12.23;96.56
71088;SHT31;58747;50.674;4.616;2022-10-16T05:49:32;12.22;96.83
71088;SHT31;58747;50.674;4.616;2022-10-16T05:51:57;12.22;96.89
71088;SHT31;58747;50.674;4.616;2022-10-16T05:54:22;12.22;97.04
71088;SHT31;58747;50.674;4.616;2022-10-16T05:56:48;12.22;96.96
71088;SHT31;58747;50.674;4.616;2022-10-16T05:59:13;12.26;96.94
71088;SHT31;58747;50.674;4.616;2022-10-16T06:01:38;12.26;96.98
71088;SHT31;58747;50.674;4.616;2022-10-16T06:04:04;12.27;96.94
71088;SHT31;58747;50.674;4.616;2022-10-16T06:06:29;12.27;96.93
71088;SHT31;58747;50.674;4.616;2022-10-16T06:08:56;12.26;97.06
71088;SHT31;58747;50.674;4.616;2022-10-16T06:11:26;12.23;97.01
71088;SHT31;58747;50.674;4.616;2022-10-16T06:13:53;12.30;96.95
71088;SHT31;58747;50.674;4.616;2022-10-16T06:16:18;12.29;96.89
71088;SHT31;58747;50.674;4.616;2022-10-16T06:18:44;12.25;97.05
71088;SHT31;58747;50.674;4.616;2022-10-16T06:21:12;12.29;97.01
71088;SHT31;58747;50.674;4.616;2022-10-16T06:23:39;12.23;97.12
71088;SHT31;58747;50.674;4.616;2022-10-16T06:26:12;12.22;97.13
71088;SHT31;58747;50.674;4.616;2022-10-16T06:28:38;12.27;97.06
71088;SHT31;58747;50.674;4.616;2022-10-16T06:31:05;12.26;96.93
71088;SHT31;58747;50.674;4.616;2022-10-16T06:33:31;12.38;97.21
71088;SHT31;58747;50.674;4.616;2022-10-16T06:38:28;12.26;96.89
71088;SHT31;58747;50.674;4.616;2022-10-16T06:40:53;12.16;97.04
71088;SHT31;58747;50.674;4.616;2022-10-16T06:43:19;12.17;97.20
71088;SHT31;58747;50.674;4.616;2022-10-16T06:45:56;12.16;97.25
71088;SHT31;58747;50.674;4.616;2022-10-16T06:48:22;12.13;97.28
71088;SHT31;58747;50.674;4.616;2022-10-16T06:53:28;12.26;97.46
71088;SHT31;58747;50.674;4.616;2022-10-16T06:55:54;12.30;97.10
71088;SHT31;58747;50.674;4.616;2022-10-16T06:58:19;12.25;97.09
71088;SHT31;58747;50.674;4.616;2022-10-16T07:00:45;12.29;97.07
71088;SHT31;58747;50.674;4.616;2022-10-16T07:03:10;12.26;97.03
71088;SHT31;58747;50.674;4.616;2022-10-16T07:05:40;12.23;97.08
71088;SHT31;58747;50.674;4.616;2022-10-16T07:08:05;12.20;97.21
71088;SHT31;58747;50.674;4.616;2022-10-16T07:10:32;12.20;97.38
71088;SHT31;58747;50.674;4.616;2022-10-16T07:12:57;12.20;97.31
71088;SHT31;58747;50.674;4.616;2022-10-16T07:15:24;12.23;97.33
71088;SHT31;58747;50.674;4.616;2022-10-16T07:17:49;12.20;97.38
71088;SHT31;58747;50.674;4.616;2022-10-16T07:20:15;12.29;97.41
71088;SHT31;58747;50.674;4.616;2022-10-16T07:22:40;12.30;97.47
71088;SHT31;58747;50.674;4.616;2022-10-16T07:25:06;12.33;97.35
71088;SHT31;58747;50.674;4.616;2022-10-16T07:27:31;12.37;97.33
71088;SHT31;58747;50.674;4.616;2022-10-16T07:29:56;12.50;97.22
71088;SHT31;58747;50.674;4.616;2022-10-16T07:32:22;12.53;96.96
71088;SHT31;58747;50.674;4.616;2022-10-16T07:34:48;12.55;96.94
71088;SHT31;58747;50.674;4.616;2022-10-16T07:37:14;12.57;96.83
71088;SHT31;58747;50.674;4.616;2022-10-16T07:39:39;12.73;96.52
71088;SHT31;58747;50.674;4.616;2022-10-16T07:42:04;12.77;96.30
71088;SHT31;58747;50.674;4.616;2022-10-16T07:44:30;12.87;96.22
71088;SHT31;58747;50.674;4.616;2022-10-16T07:46:55;12.89;95.94
71088;SHT31;58747;50.674;4.616;2022-10-16T07:49:20;12.95;95.73
71088;SHT31;58747;50.674;4.616;2022-10-16T07:51:46;12.96;95.73
71088;SHT31;58747;50.674;4.616;2022-10-16T07:54:11;13.01;95.50
71088;SHT31;58747;50.674;4.616;2022-10-16T07:56:36;13.06;95.42
71088;SHT31;58747;50.674;4.616;2022-10-16T07:59:02;13.16;95.11
71088;SHT31;58747;50.674;4.616;2022-10-16T08:01:27;13.20;94.86
71088;SHT31;58747;50.674;4.616;2022-10-16T08:03:53;13.29;94.36
71088;SHT31;58747;50.674;4.616;2022-10-16T08:06:20;13.32;94.43
71088;SHT31;58747;50.674;4.616;2022-10-16T08:08:45;13.32;94.42
71088;SHT31;58747;50.674;4.616;2022-10-16T08:11:11;13.38;94.32
71088;SHT31;58747;50.674;4.616;2022-10-16T08:13:36;13.50;93.87
71088;SHT31;58747;50.674;4.616;2022-10-16T08:16:02;13.56;93.26
71088;SHT31;58747;50.674;4.616;2022-10-16T08:18:33;13.59;93.13
71088;SHT31;58747;50.674;4.616;2022-10-16T08:20:59;13.62;93.18
71088;SHT31;58747;50.674;4.616;2022-10-16T08:23:26;13.60;93.37
71088;SHT31;58747;50.674;4.616;2022-10-16T08:25:53;13.63;93.51
71088;SHT31;58747;50.674;4.616;2022-10-16T08:28:19;13.69;93.19
71088;SHT31;58747;50.674;4.616;2022-10-16T08:30:44;13.74;92.79
71088;SHT31;58747;50.674;4.616;2022-10-16T08:33:09;13.85;91.83
71088;SHT31;58747;50.674;4.616;2022-10-16T08:35:35;13.95;91.40
71088;SHT31;58747;50.674;4.616;2022-10-16T08:38:03;14.00;91.08
71088;SHT31;58747;50.674;4.616;2022-10-16T08:40:31;14.05;91.16
71088;SHT31;58747;50.674;4.616;2022-10-16T08:43:21;14.17;90.63
71088;SHT31;58747;50.674;4.616;2022-10-16T08:48:48;14.35;90.42
71088;SHT31;58747;50.674;4.616;2022-10-16T08:51:23;14.42;89.88
71088;SHT31;58747;50.674;4.616;2022-10-16T08:53:53;14.58;89.22
71088;SHT31;58747;50.674;4.616;2022-10-16T08:56:19;14.68;88.38
71088;SHT31;58747;50.674;4.616;2022-10-16T08:58:48;14.79;88.54
71088;SHT31;58747;50.674;4.616;2022-10-16T09:01:16;14.90;87.75
71088;SHT31;58747;50.674;4.616;2022-10-16T09:19:42;16.00;81.81
71088;SHT31;58747;50.674;4.616;2022-10-16T09:22:16;16.18;82.05
71088;SHT31;58747;50.674;4.616;2022-10-16T09:24:41;16.31;80.42
71088;SHT31;58747;50.674;4.616;2022-10-16T09:27:11;16.47;80.73
71088;SHT31;58747;50.674;4.616;2022-10-16T09:29:37;16.69;80.18
71088;SHT31;58747;50.674;4.616;2022-10-16T09:32:11;16.94;79.02
71088;SHT31;58747;50.674;4.616;2022-10-16T09:34:42;16.98;80.10
71088;SHT31;58747;50.674;4.616;2022-10-16T09:37:12;16.98;78.61
71088;SHT31;58747;50.674;4.616;2022-10-16T09:39:46;17.03;78.63
71088;SHT31;58747;50.674;4.616;2022-10-16T09:44:52;17.06;76.90
71088;SHT31;58747;50.674;4.616;2022-10-16T09:47:21;17.19;76.72
71088;SHT31;58747;50.674;4.616;2022-10-16T09:50:02;17.33;76.44
71088;SHT31;58747;50.674;4.616;2022-10-16T09:52:29;17.49;75.62
71088;SHT31;58747;50.674;4.616;2022-10-16T09:55:00;17.37;74.58
71088;SHT31;58747;50.674;4.616;2022-10-16T09:57:27;17.44;74.47
71088;SHT31;58747;50.674;4.616;2022-10-16T09:59:54;17.51;74.52
71088;SHT31;58747;50.674;4.616;2022-10-16T10:02:29;17.60;74.05
71088;SHT31;58747;50.674;4.616;2022-10-16T10:04:55;17.54;74.09
71088;SHT31;58747;50.674;4.616;2022-10-16T10:07:31;17.82;73.90
71088;SHT31;58747;50.674;4.616;2022-10-16T10:10:00;17.85;74.08
71088;SHT31;58747;50.674;4.616;2022-10-16T10:12:30;17.85;74.48
71088;SHT31;58747;50.674;4.616;2022-10-16T10:15:06;17.98;73.87
71088;SHT31;58747;50.674;4.616;2022-10-16T10:17:32;17.90;72.55
71088;SHT31;58747;50.674;4.616;2022-10-16T10:22:46;17.84;75.31
71088;SHT31;58747;50.674;4.616;2022-10-16T10:27:59;18.50;74.30
71088;SHT31;58747;50.674;4.616;2022-10-16T10:30:37;18.77;70.82
71088;SHT31;58747;50.674;4.616;2022-10-16T10:39:12;19.46;68.19
71088;SHT31;58747;50.674;4.616;2022-10-16T10:47:38;19.51;68.85
71088;SHT31;58747;50.674;4.616;2022-10-16T10:50:31;18.46;68.23
71088;SHT31;58747;50.674;4.616;2022-10-16T10:53:21;18.38;68.88
71088;SHT31;58747;50.674;4.616;2022-10-16T10:58:34;18.90;68.09
71088;SHT31;58747;50.674;4.616;2022-10-16T11:01:13;19.51;66.80
71088;SHT31;58747;50.674;4.616;2022-10-16T11:06:12;22.15;57.76
71088;SHT31;58747;50.674;4.616;2022-10-16T11:08:53;22.57;56.12
71088;SHT31;58747;50.674;4.616;2022-10-16T11:14:17;23.59;54.62
71088;SHT31;58747;50.674;4.616;2022-10-16T11:16:58;25.09;50.33
71088;SHT31;58747;50.674;4.616;2022-10-16T11:22:32;25.57;45.68
71088;SHT31;58747;50.674;4.616;2022-10-16T11:25:24;24.37;48.94
71088;SHT31;58747;50.674;4.616;2022-10-16T11:28:10;23.42;52.53
71088;SHT31;58747;50.674;4.616;2022-10-16T11:30:44;22.01;55.19
71088;SHT31;58747;50.674;4.616;2022-10-16T11:33:25;22.08;56.11
71088;SHT31;58747;50.674;4.616;2022-10-16T11:36:01;22.94;54.45
71088;SHT31;58747;50.674;4.616;2022-10-16T11:38:34;24.41;49.94
71088;SHT31;58747;50.674;4.616;2022-10-16T11:41:10;24.79;50.55
71088;SHT31;58747;50.674;4.616;2022-10-16T11:43:41;23.80;52.94
71088;SHT31;58747;50.674;4.616;2022-10-16T11:46:12;22.70;55.65
71088;SHT31;58747;50.674;4.616;2022-10-16T11:48:49;21.40;58.30
71088;SHT31;58747;50.674;4.616;2022-10-16T11:51:39;20.93;60.06
71088;SHT31;58747;50.674;4.616;2022-10-16T11:54:17;20.61;61.40
71088;SHT31;58747;50.674;4.616;2022-10-16T11:56:48;20.62;63.27
71088;SHT31;58747;50.674;4.616;2022-10-16T12:00:04;20.10;61.99
71088;SHT31;58747;50.674;4.616;2022-10-16T12:08:12;19.80;65.52
71088;SHT31;58747;50.674;4.616;2022-10-16T12:10:40;19.65;66.80
71088;SHT31;58747;50.674;4.616;2022-10-16T12:16:22;19.36;65.40
71088;SHT31;58747;50.674;4.616;2022-10-16T12:18:48;19.21;65.04
71088;SHT31;58747;50.674;4.616;2022-10-16T12:21:16;19.11;65.35
71088;SHT31;58747;50.674;4.616;2022-10-16T12:23:48;19.25;66.94
71088;SHT31;58747;50.674;4.616;2022-10-16T12:26:24;19.31;66.13
71088;SHT31;58747;50.674;4.616;2022-10-16T12:28:49;19.12;65.30
71088;SHT31;58747;50.674;4.616;2022-10-16T12:31:16;19.17;66.45
71088;SHT31;58747;50.674;4.616;2022-10-16T12:33:58;19.17;66.17
71088;SHT31;58747;50.674;4.616;2022-10-16T12:36:30;19.18;67.84
71088;SHT31;58747;50.674;4.616;2022-10-16T12:38:56;19.22;66.54
71088;SHT31;58747;50.674;4.616;2022-10-16T12:43:54;18.98;66.00
71088;SHT31;58747;50.674;4.616;2022-10-16T12:46:23;19.10;67.70
71088;SHT31;58747;50.674;4.616;2022-10-16T12:48:48;19.01;64.09
71088;SHT31;58747;50.674;4.616;2022-10-16T12:54:15;18.86;65.20
71088;SHT31;58747;50.674;4.616;2022-10-16T12:59:55;18.91;65.55
71088;SHT31;58747;50.674;4.616;2022-10-16T13:02:48;18.79;69.80
71088;SHT31;58747;50.674;4.616;2022-10-16T13:05:30;18.52;68.48
71088;SHT31;58747;50.674;4.616;2022-10-16T13:16:48;18.18;68.68
71088;SHT31;58747;50.674;4.616;2022-10-16T13:19:28;18.15;68.18
71088;SHT31;58747;50.674;4.616;2022-10-16T13:24:55;18.28;68.02
71088;SHT31;58747;50.674;4.616;2022-10-16T13:30:20;18.46;67.49
71088;SHT31;58747;50.674;4.616;2022-10-16T13:32:48;18.56;67.68
71088;SHT31;58747;50.674;4.616;2022-10-16T13:35:26;18.66;67.12
71088;SHT31;58747;50.674;4.616;2022-10-16T13:38:05;18.79;65.20
71088;SHT31;58747;50.674;4.616;2022-10-16T13:40:31;18.91;65.42
71088;SHT31;58747;50.674;4.616;2022-10-16T13:42:59;18.88;63.99
71088;SHT31;58747;50.674;4.616;2022-10-16T13:45:25;18.83;64.95
71088;SHT31;58747;50.674;4.616;2022-10-16T13:48:02;18.81;66.51
71088;SHT31;58747;50.674;4.616;2022-10-16T13:50:27;18.69;65.77
71088;SHT31;58747;50.674;4.616;2022-10-16T13:53:06;18.80;68.02
71088;SHT31;58747;50.674;4.616;2022-10-16T13:55:32;18.83;66.12
71088;SHT31;58747;50.674;4.616;2022-10-16T13:58:07;18.86;67.00
71088;SHT31;58747;50.674;4.616;2022-10-16T14:00:33;19.00;65.67
71088;SHT31;58747;50.674;4.616;2022-10-16T14:03:02;18.90;65.34
71088;SHT31;58747;50.674;4.616;2022-10-16T14:05:28;18.90;69.13
71088;SHT31;58747;50.674;4.616;2022-10-16T14:07:54;18.90;67.59
71088;SHT31;58747;50.674;4.616;2022-10-16T14:10:23;18.94;68.36
71088;SHT31;58747;50.674;4.616;2022-10-16T14:13:02;18.96;67.93
71088;SHT31;58747;50.674;4.616;2022-10-16T14:15:29;18.90;67.46
71088;SHT31;58747;50.674;4.616;2022-10-16T14:17:55;18.86;68.78
71088;SHT31;58747;50.674;4.616;2022-10-16T14:20:25;18.86;67.96
71088;SHT31;58747;50.674;4.616;2022-10-16T14:23:41;18.80;68.28
71088;SHT31;58747;50.674;4.616;2022-10-16T14:25:48;18.73;68.73
71088;SHT31;58747;50.674;4.616;2022-10-16T14:28:20;18.83;69.04
71088;SHT31;58747;50.674;4.616;2022-10-16T14:30:55;18.88;70.15
71088;SHT31;58747;50.674;4.616;2022-10-16T14:38:24;18.71;70.85
71088;SHT31;58747;50.674;4.616;2022-10-16T14:40:50;18.77;71.21
71088;SHT31;58747;50.674;4.616;2022-10-16T14:43:22;18.83;71.34
71088;SHT31;58747;50.674;4.616;2022-10-16T14:45:52;18.84;70.37
71088;SHT31;58747;50.674;4.616;2022-10-16T14:48:19;18.79;71.72
71088;SHT31;58747;50.674;4.616;2022-10-16T14:50:46;18.74;72.01
71088;SHT31;58747;50.674;4.616;2022-10-16T14:53:11;18.81;71.67
71088;SHT31;58747;50.674;4.616;2022-10-16T14:55:38;18.70;70.74
71088;SHT31;58747;50.674;4.616;2022-10-16T14:58:03;18.77;71.11
71088;SHT31;58747;50.674;4.616;2022-10-16T15:00:29;18.69;72.50
71088;SHT31;58747;50.674;4.616;2022-10-16T15:02:54;18.73;72.26
71088;SHT31;58747;50.674;4.616;2022-10-16T15:05:25;18.71;72.14
71088;SHT31;58747;50.674;4.616;2022-10-16T15:07:52;18.55;72.47
71088;SHT31;58747;50.674;4.616;2022-10-16T15:10:20;18.55;73.13
71088;SHT31;58747;50.674;4.616;2022-10-16T15:12:46;18.38;72.05
71088;SHT31;58747;50.674;4.616;2022-10-16T15:17:56;18.36;73.14
71088;SHT31;58747;50.674;4.616;2022-10-16T15:20:29;18.36;73.60
71088;SHT31;58747;50.674;4.616;2022-10-16T15:22:55;18.29;73.09
71088;SHT31;58747;50.674;4.616;2022-10-16T15:28:01;18.26;73.91
71088;SHT31;58747;50.674;4.616;2022-10-16T15:30:27;18.24;74.67
71088;SHT31;58747;50.674;4.616;2022-10-16T15:32:52;18.21;75.15
71088;SHT31;58747;50.674;4.616;2022-10-16T15:35:18;18.16;75.07
71088;SHT31;58747;50.674;4.616;2022-10-16T15:37:43;18.21;76.33
71088;SHT31;58747;50.674;4.616;2022-10-16T15:40:10;18.22;75.86
71088;SHT31;58747;50.674;4.616;2022-10-16T15:42:35;18.16;75.63
71088;SHT31;58747;50.674;4.616;2022-10-16T15:45:01;18.15;76.22
71088;SHT31;58747;50.674;4.616;2022-10-16T15:47:26;18.02;76.06
71088;SHT31;58747;50.674;4.616;2022-10-16T15:49:52;17.92;75.52
71088;SHT31;58747;50.674;4.616;2022-10-16T15:52:17;17.90;76.52
71088;SHT31;58747;50.674;4.616;2022-10-16T15:54:43;17.84;76.47
71088;SHT31;58747;50.674;4.616;2022-10-16T15:57:09;17.87;76.83
71088;SHT31;58747;50.674;4.616;2022-10-16T15:59:34;17.85;77.75
71088;SHT31;58747;50.674;4.616;2022-10-16T16:01:59;17.82;77.55
71088;SHT31;58747;50.674;4.616;2022-10-16T16:04:25;17.75;77.29
71088;SHT31;58747;50.674;4.616;2022-10-16T16:06:50;17.75;77.04
71088;SHT31;58747;50.674;4.616;2022-10-16T16:09:16;17.74;78.32
71088;SHT31;58747;50.674;4.616;2022-10-16T16:11:41;17.69;78.01
71088;SHT31;58747;50.674;4.616;2022-10-16T16:14:07;17.70;78.58
71088;SHT31;58747;50.674;4.616;2022-10-16T16:16:35;17.59;78.34
71088;SHT31;58747;50.674;4.616;2022-10-16T16:19:04;17.61;79.65
71088;SHT31;58747;50.674;4.616;2022-10-16T16:21:30;17.59;79.94
71088;SHT31;58747;50.674;4.616;2022-10-16T16:23:55;17.54;80.11
71088;SHT31;58747;50.674;4.616;2022-10-16T16:26:26;17.37;79.51
71088;SHT31;58747;50.674;4.616;2022-10-16T16:28:52;17.27;79.58
71088;SHT31;58747;50.674;4.616;2022-10-16T16:31:18;17.27;79.13
71088;SHT31;58747;50.674;4.616;2022-10-16T16:33:44;17.27;79.73
71088;SHT31;58747;50.674;4.616;2022-10-16T16:36:10;17.24;80.18
71088;SHT31;58747;50.674;4.616;2022-10-16T16:38:35;17.15;81.04
71088;SHT31;58747;50.674;4.616;2022-10-16T16:41:11;17.06;80.96
71088;SHT31;58747;50.674;4.616;2022-10-16T16:43:36;17.13;81.54
71088;SHT31;58747;50.674;4.616;2022-10-16T16:46:02;17.16;81.76
71088;SHT31;58747;50.674;4.616;2022-10-16T16:48:27;17.13;81.07
71088;SHT31;58747;50.674;4.616;2022-10-16T16:50:52;17.12;81.61
71088;SHT31;58747;50.674;4.616;2022-10-16T16:53:18;17.11;82.15
71088;SHT31;58747;50.674;4.616;2022-10-16T16:55:43;17.12;81.37
71088;SHT31;58747;50.674;4.616;2022-10-16T16:58:08;17.12;81.45
71088;SHT31;58747;50.674;4.616;2022-10-16T17:00:34;17.08;81.45
71088;SHT31;58747;50.674;4.616;2022-10-16T17:02:59;17.03;81.42
71088;SHT31;58747;50.674;4.616;2022-10-16T17:05:25;16.94;83.80
71088;SHT31;58747;50.674;4.616;2022-10-16T17:07:51;16.71;84.53
71088;SHT31;58747;50.674;4.616;2022-10-16T17:10:16;16.44;87.16
71088;SHT31;58747;50.674;4.616;2022-10-16T17:12:41;16.21;88.55
71088;SHT31;58747;50.674;4.616;2022-10-16T17:15:07;16.07;89.90
71088;SHT31;58747;50.674;4.616;2022-10-16T17:17:33;16.00;89.72
71088;SHT31;58747;50.674;4.616;2022-10-16T17:19:58;15.99;90.34
71088;SHT31;58747;50.674;4.616;2022-10-16T17:22:23;15.97;90.25
71088;SHT31;58747;50.674;4.616;2022-10-16T17:24:49;16.00;90.60
71088;SHT31;58747;50.674;4.616;2022-10-16T17:27:16;15.99;90.46
71088;SHT31;58747;50.674;4.616;2022-10-16T17:29:42;15.89;91.67
71088;SHT31;58747;50.674;4.616;2022-10-16T17:32:07;15.78;92.11